Shelton, WA

8:24 AM PST on February 07, 2016 (GMT -0800)
Sanderson | | Change Station
CLOSE
Current Station
Airport
Location: Shelton,
Elevation: 269 ft
Nearby Weather Stations

Elev 269 ft 47.24 °N, 123.14 °W | Updated 31 minutes ago

Overcast
Overcast
36 °F
Feels Like 33 °F
N
4
Wind Variable Wind from ESE

Today
High -- | Low -- °F
--% Chance of Precip.
Yesterday
High -- | Low -- °F
Precip. -- in
Pressure 30.52 in
Visibility 10.0 miles
Clouds Overcast 8500 ft
Windchill 33 °F
Dew Point 35 °F
Humidity 97%
Rainfall 0.00 in
Snow Depth Not available.
7:30 AM 5:23 PM
Waning Crescent, 1% visible
METAR KSHN 071553Z AUTO 11003KT 10SM OVC085 02/02 A3051 RMK AO2 SLP335 T00220017
Pressure 30.52 in
Visibility 10.0 miles
Clouds Overcast 8500 ft
Windchill 33 °F
Dew Point 35 °F
Humidity 97%
Rainfall 0.00 in
Snow Depth Not available.
7:30 AM 5:23 PM
Waning Crescent, 1% visible
METAR KSHN 071553Z AUTO 11003KT 10SM OVC085 02/02 A3051 RMK AO2 SLP335 T00220017

10-Day Weather Forecast

Almanac

Astronomy

Feb. 07, 2016 Rise Set
Actual Time
Civil Twilight
Nautical Twilight
Astronomical Twilight
Moon
Length of Visible Light
Length of Day
Tomorrow will be .
, % of the Moon is Illuminated

Today's Extremes

State Highs State Lows

Community

WunderPhotos

Upload Photos

1,891,221 photos uploaded!

WunderBlog® & News

Nearby

Air Quality

  Air Quality AQ Index Pollutant
Not available.

Snow Depth

Station Depth Elevation

Earthquake Activity

City Distance Mag. Time & Date
Minimum magnitude displayed is 2.5.

Coastal Water Temperatures

Place Temperature

Stations

Nearby Weather Stations

Station Location Temp. Windchill Dew Point Humidity Wind Precip. Elev Updated Type
                   

Watches & Warnings

There are currently no watches in effect.